createdAt,value
2024-03-16T00:00:26.097Z,5.88
2024-03-16T00:02:28.575Z,6.97
2024-03-16T00:04:37.442Z,6.13
2024-03-16T00:06:42.561Z,10.05
2024-03-16T00:08:50.364Z,7.55
2024-03-16T00:10:53.539Z,7.82
2024-03-16T00:12:59.541Z,6.90
2024-03-16T00:15:05.018Z,4.97
2024-03-16T00:17:10.577Z,8.52
2024-03-16T00:19:16.409Z,6.13
2024-03-16T00:21:24.759Z,11.70
2024-03-16T00:23:27.997Z,7.88
2024-03-16T00:25:33.184Z,6.75
2024-03-16T00:27:39.059Z,14.07
2024-03-16T00:29:44.369Z,10.73
2024-03-16T00:31:50.368Z,11.20
2024-03-16T00:33:56.202Z,8.45
2024-03-16T00:36:01.531Z,8.32
2024-03-16T00:38:11.787Z,7.30
2024-03-16T00:40:21.189Z,10.35
2024-03-16T00:42:27.115Z,9.20
2024-03-16T00:44:29.833Z,9.27
2024-03-16T00:46:35.334Z,6.85
2024-03-16T00:48:41.542Z,6.97
2024-03-16T00:50:46.690Z,8.05
2024-03-16T00:52:52.694Z,12.10
2024-03-16T00:55:01.153Z,9.60
2024-03-16T00:57:06.612Z,10.70
2024-03-16T00:59:11.719Z,10.15
2024-03-16T01:01:18.544Z,7.25
2024-03-16T01:03:25.030Z,6.82
2024-03-16T01:05:30.545Z,8.27
2024-03-16T01:07:35.684Z,10.40
2024-03-16T01:09:38.523Z,10.88
2024-03-16T01:13:52.491Z,9.85
2024-03-16T01:15:57.867Z,10.63
2024-03-16T01:18:04.145Z,8.30
2024-03-16T01:20:10.849Z,7.43
2024-03-16T01:22:16.414Z,9.20
2024-03-16T01:24:39.989Z,10.15
2024-03-16T01:26:48.656Z,6.28
2024-03-16T01:29:00.776Z,6.80
2024-03-16T01:31:06.061Z,9.63
2024-03-16T01:33:11.611Z,9.48
2024-03-16T01:35:16.897Z,8.63
2024-03-16T01:37:22.524Z,7.90
2024-03-16T01:39:31.245Z,9.80
2024-03-16T01:41:36.486Z,10.25
2024-03-16T01:43:49.998Z,11.13
2024-03-16T01:45:55.273Z,8.50
2024-03-16T01:48:01.774Z,10.18
2024-03-16T01:50:09.077Z,10.57
2024-03-16T01:52:14.953Z,10.70
2024-03-16T01:54:21.292Z,11.63
2024-03-16T01:56:26.840Z,11.13
2024-03-16T01:58:32.034Z,11.35
2024-03-16T02:00:40.342Z,11.65
2024-03-16T02:02:46.476Z,11.10
2024-03-16T02:04:51.797Z,9.95
2024-03-16T02:06:57.626Z,16.17
2024-03-16T02:09:04.395Z,12.82
2024-03-16T02:11:09.834Z,18.15
2024-03-16T02:13:16.132Z,15.88
2024-03-16T02:15:22.613Z,11.13
2024-03-16T02:17:29.178Z,9.35
2024-03-16T02:19:34.498Z,10.63
2024-03-16T02:21:40.872Z,10.45
2024-03-16T02:23:46.662Z,10.30
2024-03-16T02:25:52.220Z,14.15
2024-03-16T02:28:02.144Z,16.20
2024-03-16T02:30:11.744Z,13.48
2024-03-16T02:32:17.193Z,15.13
2024-03-16T02:34:19.898Z,22.50
2024-03-16T02:36:25.318Z,15.50
2024-03-16T02:38:33.395Z,17.55
2024-03-16T02:40:39.931Z,19.92
2024-03-16T02:42:44.590Z,21.45
2024-03-16T02:44:50.155Z,18.15
2024-03-16T02:46:55.650Z,20.10
2024-03-16T02:49:03.241Z,20.33
2024-03-16T02:51:08.627Z,20.40
2024-03-16T02:53:14.832Z,24.95
2024-03-16T02:55:23.160Z,22.40
2024-03-16T02:57:28.859Z,17.15
2024-03-16T02:59:34.192Z,22.75
2024-03-16T03:01:40.772Z,21.92
2024-03-16T03:03:46.037Z,23.45
2024-03-16T03:05:51.178Z,22.40
2024-03-16T03:08:01.162Z,19.75
2024-03-16T03:10:07.688Z,26.48
2024-03-16T03:12:16.694Z,21.05
2024-03-16T03:14:22.780Z,17.83
2024-03-16T03:16:28.252Z,24.13
2024-03-16T03:18:34.729Z,19.20
2024-03-16T03:20:46.439Z,19.25
2024-03-16T03:22:52.109Z,20.52
2024-03-16T03:24:57.545Z,20.65
2024-03-16T03:27:03.104Z,22.30
2024-03-16T03:29:11.917Z,18.95
2024-03-16T03:31:15.011Z,24.92
2024-03-16T03:33:20.851Z,18.10
2024-03-16T03:35:25.999Z,21.90
2024-03-16T03:37:34.913Z,14.50
2024-03-16T03:39:40.570Z,18.70
2024-03-16T03:41:46.149Z,17.63
2024-03-16T03:44:01.552Z,20.05
2024-03-16T03:46:14.789Z,21.58
2024-03-16T03:50:34.378Z,16.35
2024-03-16T03:52:40.781Z,20.23
2024-03-16T03:54:46.087Z,17.70
2024-03-16T03:56:51.746Z,18.60
2024-03-16T03:59:07.286Z,21.58
2024-03-16T04:01:15.523Z,18.48
2024-03-16T04:03:21.217Z,17.33
2024-03-16T04:05:27.571Z,21.27
2024-03-16T04:07:31.334Z,21.60
2024-03-16T04:09:36.667Z,16.27
2024-03-16T04:11:43.373Z,22.40
2024-03-16T04:13:48.524Z,18.08
2024-03-16T04:15:53.727Z,15.48
2024-03-16T04:18:01.758Z,20.52
2024-03-16T04:20:11.194Z,17.48
2024-03-16T04:22:17.308Z,14.30
2024-03-16T04:24:22.784Z,15.73
2024-03-16T04:26:29.047Z,17.60
2024-03-16T04:28:34.137Z,14.88
2024-03-16T04:30:39.329Z,21.20
2024-03-16T04:32:42.667Z,19.10
2024-03-16T04:34:50.840Z,26.58
2024-03-16T04:36:54.011Z,11.77
2024-03-16T04:39:01.057Z,15.40
2024-03-16T04:41:06.551Z,16.88
2024-03-16T04:43:11.993Z,11.73
2024-03-16T04:45:17.375Z,16.08
2024-03-16T04:47:22.582Z,13.77
2024-03-16T04:49:27.986Z,14.68
2024-03-16T04:51:36.378Z,16.25
2024-03-16T04:53:41.696Z,15.73
2024-03-16T04:55:44.391Z,15.05
2024-03-16T04:57:49.946Z,16.77
2024-03-16T04:59:55.080Z,15.27
2024-03-16T05:02:00.368Z,14.77
2024-03-16T05:04:02.958Z,15.38
2024-03-16T05:06:08.428Z,18.15
2024-03-16T05:08:15.574Z,15.57
2024-03-16T05:10:21.627Z,15.80
2024-03-16T05:12:26.951Z,15.48
2024-03-16T05:14:34.004Z,14.07
2024-03-16T05:16:41.802Z,13.85
2024-03-16T05:18:47.363Z,16.55
2024-03-16T05:20:54.770Z,17.33
2024-03-16T05:23:01.878Z,15.70
2024-03-16T05:25:10.908Z,16.30
2024-03-16T05:27:16.454Z,14.02
2024-03-16T05:29:22.138Z,12.93
2024-03-16T05:31:28.692Z,14.20
2024-03-16T05:33:36.659Z,15.27
2024-03-16T05:35:42.567Z,21.05
2024-03-16T05:37:49.037Z,16.35
2024-03-16T05:39:52.332Z,15.82
2024-03-16T05:42:00.717Z,14.40
2024-03-16T05:44:06.148Z,14.25
2024-03-16T05:46:11.449Z,11.52
2024-03-16T05:48:22.098Z,13.57
2024-03-16T05:50:24.761Z,12.88
2024-03-16T05:52:30.058Z,15.10
2024-03-16T05:54:36.038Z,16.98
2024-03-16T05:56:41.302Z,15.45
2024-03-16T05:58:49.075Z,12.68
2024-03-16T06:00:55.219Z,16.45
2024-03-16T06:03:00.878Z,11.45
2024-03-16T06:05:06.851Z,12.90
2024-03-16T06:07:12.793Z,11.50
2024-03-16T06:09:18.242Z,12.75
2024-03-16T06:11:28.142Z,13.68
2024-03-16T06:13:33.562Z,15.05
2024-03-16T06:15:42.882Z,14.45
2024-03-16T06:17:50.950Z,12.85
2024-03-16T06:19:56.215Z,13.95
2024-03-16T06:22:03.350Z,17.08
2024-03-16T06:24:09.135Z,14.93
2024-03-16T06:26:18.795Z,17.90
2024-03-16T06:28:25.764Z,13.32
2024-03-16T06:30:29.719Z,17.48
2024-03-16T06:32:45.953Z,14.65
2024-03-16T06:34:51.494Z,13.77
2024-03-16T06:36:57.102Z,12.95
2024-03-16T06:39:07.556Z,11.95
2024-03-16T06:41:12.852Z,14.77
2024-03-16T06:43:18.188Z,12.23
2024-03-16T06:45:23.523Z,14.90
2024-03-16T06:47:29.063Z,11.45
2024-03-16T06:49:38.481Z,13.38
2024-03-16T06:51:43.653Z,15.30
2024-03-16T06:53:48.673Z,12.02
2024-03-16T06:55:55.590Z,15.80
2024-03-16T06:58:00.802Z,10.27
2024-03-16T07:00:09.816Z,15.25
2024-03-16T07:02:15.278Z,11.60
2024-03-16T07:04:20.843Z,10.95
2024-03-16T07:06:29.232Z,10.70
2024-03-16T07:08:32.214Z,14.10
2024-03-16T07:10:38.077Z,12.23
2024-03-16T07:12:43.359Z,7.18
2024-03-16T07:14:49.351Z,11.65
2024-03-16T07:16:55.206Z,11.65
2024-03-16T07:19:04.455Z,9.68
2024-03-16T07:21:10.079Z,11.27
2024-03-16T07:23:17.923Z,11.63
2024-03-16T07:25:23.199Z,11.27
2024-03-16T07:27:26.043Z,7.85
2024-03-16T07:29:36.358Z,6.78
2024-03-16T07:31:41.803Z,12.50
2024-03-16T07:33:48.586Z,10.35
2024-03-16T07:35:54.280Z,8.65
2024-03-16T07:37:57.020Z,10.35
2024-03-16T07:40:05.053Z,9.82
2024-03-16T07:42:10.257Z,8.50
2024-03-16T07:44:13.763Z,7.72
2024-03-16T07:46:20.902Z,8.90
2024-03-16T07:48:27.545Z,7.20
2024-03-16T07:50:32.625Z,6.60
2024-03-16T07:52:38.144Z,9.13
2024-03-16T07:54:43.313Z,8.43
2024-03-16T07:56:51.246Z,7.43
2024-03-16T07:58:58.838Z,9.93
2024-03-16T08:01:05.929Z,7.72
2024-03-16T08:03:11.317Z,8.13
2024-03-16T08:05:16.902Z,8.43
2024-03-16T08:07:22.856Z,9.15
2024-03-16T08:09:28.080Z,9.93
2024-03-16T08:11:34.599Z,8.10
2024-03-16T08:13:42.430Z,12.07
2024-03-16T08:15:47.951Z,9.77
2024-03-16T08:17:53.387Z,8.27
2024-03-16T08:20:00.303Z,9.68
2024-03-16T08:22:06.049Z,7.68
2024-03-16T08:24:11.992Z,8.15
2024-03-16T08:26:17.372Z,6.20
2024-03-16T08:28:25.062Z,10.93
2024-03-16T08:30:33.098Z,8.38
2024-03-16T08:32:38.322Z,6.63
2024-03-16T08:34:43.822Z,7.05
2024-03-16T08:36:49.654Z,8.98
2024-03-16T08:38:58.034Z,9.00
2024-03-16T08:41:06.177Z,7.43
2024-03-16T08:43:12.412Z,8.43
2024-03-16T08:45:18.222Z,11.07
2024-03-16T08:47:24.073Z,7.38
2024-03-16T08:49:29.569Z,10.85
2024-03-16T08:51:32.286Z,7.07
2024-03-16T08:53:37.499Z,11.25
2024-03-16T08:55:42.823Z,9.40
2024-03-16T08:57:49.379Z,9.68
2024-03-16T08:59:54.873Z,7.38
2024-03-16T09:02:00.845Z,6.65
2024-03-16T09:04:09.752Z,8.38
2024-03-16T09:06:13.406Z,7.05
2024-03-16T09:08:18.885Z,7.43
2024-03-16T09:10:25.338Z,7.25
2024-03-16T09:12:30.715Z,6.10
2024-03-16T09:14:36.629Z,6.88
2024-03-16T09:16:42.864Z,6.78
2024-03-16T09:18:56.696Z,7.18
2024-03-16T09:21:06.704Z,7.45
2024-03-16T09:23:14.980Z,5.25
2024-03-16T09:25:21.966Z,6.45
2024-03-16T09:27:31.858Z,4.80
2024-03-16T09:29:37.228Z,4.95
2024-03-16T09:31:42.460Z,6.68
2024-03-16T09:33:48.179Z,6.35
2024-03-16T09:35:56.643Z,4.70
2024-03-16T09:38:02.077Z,5.30
2024-03-16T09:40:11.859Z,4.72
2024-03-16T09:42:17.747Z,6.95
